sensor_id;sensor_type;location;lat;lon;timestamp;P1;durP1;ratioP1;P2;durP2;ratioP2
52530;SDS011;38441;52.894;6.040;2023-07-13T00:00:19;11.55;;;2.67;;
52530;SDS011;38441;52.894;6.040;2023-07-13T00:02:44;12.57;;;2.45;;
52530;SDS011;38441;52.894;6.040;2023-07-13T00:05:10;10.38;;;2.90;;
52530;SDS011;38441;52.894;6.040;2023-07-13T00:07:36;13.43;;;2.58;;
52530;SDS011;38441;52.894;6.040;2023-07-13T00:10:02;12.57;;;2.58;;
52530;SDS011;38441;52.894;6.040;2023-07-13T00:12:30;9.38;;;2.50;;
52530;SDS011;38441;52.894;6.040;2023-07-13T00:14:58;13.80;;;3.47;;
52530;SDS011;38441;52.894;6.040;2023-07-13T00:17:25;14.18;;;4.13;;
52530;SDS011;38441;52.894;6.040;2023-07-13T00:19:52;13.85;;;2.90;;
52530;SDS011;38441;52.894;6.040;2023-07-13T00:22:18;12.90;;;2.42;;
52530;SDS011;38441;52.894;6.040;2023-07-13T00:24:44;12.07;;;2.45;;
52530;SDS011;38441;52.894;6.040;2023-07-13T00:27:10;12.88;;;2.72;;
52530;SDS011;38441;52.894;6.040;2023-07-13T00:29:36;9.27;;;1.80;;
52530;SDS011;38441;52.894;6.040;2023-07-13T00:32:03;12.45;;;2.78;;
52530;SDS011;38441;52.894;6.040;2023-07-13T00:34:30;11.57;;;2.63;;
52530;SDS011;38441;52.894;6.040;2023-07-13T00:36:56;17.83;;;3.08;;
52530;SDS011;38441;52.894;6.040;2023-07-13T00:39:22;10.60;;;2.63;;
52530;SDS011;38441;52.894;6.040;2023-07-13T00:41:48;14.75;;;3.08;;
52530;SDS011;38441;52.894;6.040;2023-07-13T00:44:14;10.90;;;2.53;;
52530;SDS011;38441;52.894;6.040;2023-07-13T00:46:41;14.15;;;2.70;;
52530;SDS011;38441;52.894;6.040;2023-07-13T00:49:08;11.43;;;2.95;;
52530;SDS011;38441;52.894;6.040;2023-07-13T00:51:39;13.73;;;2.70;;
52530;SDS011;38441;52.894;6.040;2023-07-13T00:54:10;12.05;;;2.20;;
52530;SDS011;38441;52.894;6.040;2023-07-13T00:56:40;10.32;;;3.08;;
52530;SDS011;38441;52.894;6.040;2023-07-13T00:59:08;10.35;;;2.60;;
52530;SDS011;38441;52.894;6.040;2023-07-13T01:01:36;14.60;;;2.33;;
52530;SDS011;38441;52.894;6.040;2023-07-13T01:04:04;9.68;;;2.53;;
52530;SDS011;38441;52.894;6.040;2023-07-13T01:06:33;13.95;;;2.67;;
52530;SDS011;38441;52.894;6.040;2023-07-13T01:09:00;11.07;;;3.20;;
52530;SDS011;38441;52.894;6.040;2023-07-13T01:11:27;15.25;;;3.40;;
52530;SDS011;38441;52.894;6.040;2023-07-13T01:13:53;12.68;;;2.40;;
52530;SDS011;38441;52.894;6.040;2023-07-13T01:16:25;14.23;;;2.67;;
52530;SDS011;38441;52.894;6.040;2023-07-13T01:18:53;11.57;;;2.58;;
52530;SDS011;38441;52.894;6.040;2023-07-13T01:21:23;13.30;;;2.63;;
52530;SDS011;38441;52.894;6.040;2023-07-13T01:23:49;12.13;;;2.53;;
52530;SDS011;38441;52.894;6.040;2023-07-13T01:26:14;12.75;;;2.78;;
52530;SDS011;38441;52.894;6.040;2023-07-13T01:28:40;10.20;;;2.60;;
52530;SDS011;38441;52.894;6.040;2023-07-13T01:31:06;12.25;;;2.80;;
52530;SDS011;38441;52.894;6.040;2023-07-13T01:33:33;10.90;;;2.40;;
52530;SDS011;38441;52.894;6.040;2023-07-13T01:35:59;12.50;;;2.92;;
52530;SDS011;38441;52.894;6.040;2023-07-13T01:38:27;11.85;;;2.17;;
52530;SDS011;38441;52.894;6.040;2023-07-13T01:40:53;14.10;;;2.67;;
52530;SDS011;38441;52.894;6.040;2023-07-13T01:43:19;9.43;;;2.25;;
52530;SDS011;38441;52.894;6.040;2023-07-13T01:45:46;9.60;;;2.08;;
52530;SDS011;38441;52.894;6.040;2023-07-13T01:48:12;7.68;;;2.00;;
52530;SDS011;38441;52.894;6.040;2023-07-13T01:50:38;8.85;;;2.47;;
52530;SDS011;38441;52.894;6.040;2023-07-13T01:53:05;11.95;;;2.40;;
52530;SDS011;38441;52.894;6.040;2023-07-13T01:55:31;10.05;;;2.22;;
52530;SDS011;38441;52.894;6.040;2023-07-13T01:57:56;9.20;;;1.80;;
52530;SDS011;38441;52.894;6.040;2023-07-13T02:00:22;9.35;;;2.55;;
52530;SDS011;38441;52.894;6.040;2023-07-13T02:02:49;7.80;;;2.05;;
52530;SDS011;38441;52.894;6.040;2023-07-13T02:05:15;7.45;;;2.22;;
52530;SDS011;38441;52.894;6.040;2023-07-13T02:07:41;8.80;;;1.83;;
52530;SDS011;38441;52.894;6.040;2023-07-13T02:10:07;7.85;;;1.90;;
52530;SDS011;38441;52.894;6.040;2023-07-13T02:12:34;7.38;;;1.65;;
52530;SDS011;38441;52.894;6.040;2023-07-13T02:15:00;8.88;;;2.03;;
52530;SDS011;38441;52.894;6.040;2023-07-13T02:17:26;8.35;;;1.58;;
52530;SDS011;38441;52.894;6.040;2023-07-13T02:19:52;8.93;;;2.50;;
52530;SDS011;38441;52.894;6.040;2023-07-13T02:22:19;10.68;;;2.45;;
52530;SDS011;38441;52.894;6.040;2023-07-13T02:24:44;7.57;;;1.73;;
52530;SDS011;38441;52.894;6.040;2023-07-13T02:27:10;7.22;;;1.90;;
52530;SDS011;38441;52.894;6.040;2023-07-13T02:29:36;5.13;;;1.73;;
52530;SDS011;38441;52.894;6.040;2023-07-13T02:32:02;6.47;;;1.52;;
52530;SDS011;38441;52.894;6.040;2023-07-13T02:34:28;9.10;;;1.67;;
52530;SDS011;38441;52.894;6.040;2023-07-13T02:36:53;5.47;;;1.40;;
52530;SDS011;38441;52.894;6.040;2023-07-13T02:39:19;10.52;;;2.50;;
52530;SDS011;38441;52.894;6.040;2023-07-13T02:41:45;9.68;;;1.77;;
52530;SDS011;38441;52.894;6.040;2023-07-13T02:44:12;10.85;;;2.20;;
52530;SDS011;38441;52.894;6.040;2023-07-13T02:46:38;7.88;;;1.73;;
52530;SDS011;38441;52.894;6.040;2023-07-13T02:49:04;9.98;;;2.10;;
52530;SDS011;38441;52.894;6.040;2023-07-13T02:51:30;11.60;;;2.50;;
52530;SDS011;38441;52.894;6.040;2023-07-13T02:53:59;7.80;;;2.20;;
52530;SDS011;38441;52.894;6.040;2023-07-13T02:56:28;10.30;;;2.28;;
52530;SDS011;38441;52.894;6.040;2023-07-13T02:58:55;10.13;;;2.17;;
52530;SDS011;38441;52.894;6.040;2023-07-13T03:01:21;9.88;;;2.40;;
52530;SDS011;38441;52.894;6.040;2023-07-13T03:03:48;12.38;;;2.30;;
52530;SDS011;38441;52.894;6.040;2023-07-13T03:06:15;8.95;;;2.10;;
52530;SDS011;38441;52.894;6.040;2023-07-13T03:08:41;8.55;;;2.10;;
52530;SDS011;38441;52.894;6.040;2023-07-13T03:11:12;7.63;;;2.00;;
52530;SDS011;38441;52.894;6.040;2023-07-13T03:13:40;10.60;;;2.40;;
52530;SDS011;38441;52.894;6.040;2023-07-13T03:16:06;13.02;;;2.47;;
52530;SDS011;38441;52.894;6.040;2023-07-13T03:18:33;12.82;;;3.13;;
52530;SDS011;38441;52.894;6.040;2023-07-13T03:20:59;10.88;;;2.30;;
52530;SDS011;38441;52.894;6.040;2023-07-13T03:23:25;11.55;;;2.75;;
52530;SDS011;38441;52.894;6.040;2023-07-13T03:26:00;11.15;;;2.47;;
52530;SDS011;38441;52.894;6.040;2023-07-13T03:28:30;10.88;;;2.53;;
52530;SDS011;38441;52.894;6.040;2023-07-13T03:31:00;11.88;;;2.50;;
52530;SDS011;38441;52.894;6.040;2023-07-13T03:33:30;14.25;;;2.88;;
52530;SDS011;38441;52.894;6.040;2023-07-13T03:35:56;9.40;;;2.50;;
52530;SDS011;38441;52.894;6.040;2023-07-13T03:38:22;11.30;;;2.50;;
52530;SDS011;38441;52.894;6.040;2023-07-13T03:40:48;9.05;;;2.70;;
52530;SDS011;38441;52.894;6.040;2023-07-13T03:43:14;12.88;;;2.88;;
52530;SDS011;38441;52.894;6.040;2023-07-13T03:45:40;9.45;;;2.17;;
52530;SDS011;38441;52.894;6.040;2023-07-13T03:48:06;12.38;;;2.85;;
52530;SDS011;38441;52.894;6.040;2023-07-13T03:50:32;11.32;;;2.63;;
52530;SDS011;38441;52.894;6.040;2023-07-13T03:52:58;11.13;;;2.40;;
52530;SDS011;38441;52.894;6.040;2023-07-13T03:55:24;8.32;;;2.63;;
52530;SDS011;38441;52.894;6.040;2023-07-13T03:57:53;14.80;;;2.60;;
52530;SDS011;38441;52.894;6.040;2023-07-13T04:00:23;11.45;;;2.50;;
52530;SDS011;38441;52.894;6.040;2023-07-13T04:02:49;10.32;;;2.47;;
52530;SDS011;38441;52.894;6.040;2023-07-13T04:05:15;11.93;;;3.00;;
52530;SDS011;38441;52.894;6.040;2023-07-13T04:07:41;9.82;;;2.60;;
52530;SDS011;38441;52.894;6.040;2023-07-13T04:10:07;12.77;;;2.90;;
52530;SDS011;38441;52.894;6.040;2023-07-13T04:12:33;9.30;;;2.20;;
52530;SDS011;38441;52.894;6.040;2023-07-13T04:14:59;9.73;;;2.35;;
52530;SDS011;38441;52.894;6.040;2023-07-13T04:17:24;7.75;;;2.00;;
52530;SDS011;38441;52.894;6.040;2023-07-13T04:19:50;8.20;;;2.10;;
52530;SDS011;38441;52.894;6.040;2023-07-13T04:22:16;12.02;;;2.53;;
52530;SDS011;38441;52.894;6.040;2023-07-13T04:24:42;7.43;;;1.83;;
52530;SDS011;38441;52.894;6.040;2023-07-13T04:27:07;11.30;;;2.22;;
52530;SDS011;38441;52.894;6.040;2023-07-13T04:29:33;6.22;;;1.65;;
52530;SDS011;38441;52.894;6.040;2023-07-13T04:31:59;10.48;;;1.90;;
52530;SDS011;38441;52.894;6.040;2023-07-13T04:34:24;8.40;;;1.90;;
52530;SDS011;38441;52.894;6.040;2023-07-13T04:36:50;6.35;;;1.70;;
52530;SDS011;38441;52.894;6.040;2023-07-13T04:39:16;6.45;;;1.70;;
52530;SDS011;38441;52.894;6.040;2023-07-13T04:41:42;9.60;;;2.58;;
52530;SDS011;38441;52.894;6.040;2023-07-13T04:44:07;8.48;;;1.60;;
52530;SDS011;38441;52.894;6.040;2023-07-13T04:46:33;10.18;;;2.00;;
52530;SDS011;38441;52.894;6.040;2023-07-13T04:48:59;9.40;;;1.90;;
52530;SDS011;38441;52.894;6.040;2023-07-13T04:51:25;6.95;;;1.75;;
52530;SDS011;38441;52.894;6.040;2023-07-13T04:53:52;8.30;;;1.50;;
52530;SDS011;38441;52.894;6.040;2023-07-13T04:56:17;11.07;;;2.35;;
52530;SDS011;38441;52.894;6.040;2023-07-13T04:58:44;11.65;;;2.35;;
52530;SDS011;38441;52.894;6.040;2023-07-13T05:01:10;13.50;;;2.10;;
52530;SDS011;38441;52.894;6.040;2023-07-13T05:03:46;10.88;;;2.38;;
52530;SDS011;38441;52.894;6.040;2023-07-13T05:06:15;9.18;;;1.95;;
52530;SDS011;38441;52.894;6.040;2023-07-13T05:08:41;10.63;;;2.45;;
52530;SDS011;38441;52.894;6.040;2023-07-13T05:11:07;8.43;;;2.20;;
52530;SDS011;38441;52.894;6.040;2023-07-13T05:18:59;7.63;;;1.67;;
52530;SDS011;38441;52.894;6.040;2023-07-13T05:21:30;11.52;;;2.25;;
52530;SDS011;38441;52.894;6.040;2023-07-13T05:24:00;9.63;;;2.08;;
52530;SDS011;38441;52.894;6.040;2023-07-13T05:26:33;9.98;;;1.92;;
52530;SDS011;38441;52.894;6.040;2023-07-13T05:29:04;9.65;;;1.85;;
52530;SDS011;38441;52.894;6.040;2023-07-13T05:31:32;8.57;;;1.83;;
52530;SDS011;38441;52.894;6.040;2023-07-13T05:34:04;9.02;;;1.77;;
52530;SDS011;38441;52.894;6.040;2023-07-13T05:36:37;8.55;;;2.30;;
52530;SDS011;38441;52.894;6.040;2023-07-13T05:39:15;10.80;;;1.95;;
52530;SDS011;38441;52.894;6.040;2023-07-13T05:42:08;10.68;;;2.08;;
52530;SDS011;38441;52.894;6.040;2023-07-13T05:44:33;9.75;;;2.13;;
52530;SDS011;38441;52.894;6.040;2023-07-13T05:46:59;8.43;;;2.33;;
52530;SDS011;38441;52.894;6.040;2023-07-13T05:49:32;11.15;;;2.13;;
52530;SDS011;38441;52.894;6.040;2023-07-13T05:53:01;10.65;;;2.00;;
52530;SDS011;38441;52.894;6.040;2023-07-13T05:55:50;6.47;;;1.98;;
52530;SDS011;38441;52.894;6.040;2023-07-13T05:58:33;9.60;;;2.35;;
52530;SDS011;38441;52.894;6.040;2023-07-13T06:01:13;9.57;;;2.05;;
52530;SDS011;38441;52.894;6.040;2023-07-13T06:03:49;9.20;;;2.13;;
52530;SDS011;38441;52.894;6.040;2023-07-13T06:06:18;10.60;;;2.60;;
52530;SDS011;38441;52.894;6.040;2023-07-13T06:08:44;9.38;;;1.95;;
52530;SDS011;38441;52.894;6.040;2023-07-13T06:11:31;9.45;;;1.95;;
52530;SDS011;38441;52.894;6.040;2023-07-13T06:14:17;9.07;;;2.15;;
52530;SDS011;38441;52.894;6.040;2023-07-13T06:16:45;10.32;;;2.28;;
52530;SDS011;38441;52.894;6.040;2023-07-13T06:19:14;9.68;;;2.40;;
52530;SDS011;38441;52.894;6.040;2023-07-13T06:21:46;6.47;;;1.95;;
52530;SDS011;38441;52.894;6.040;2023-07-13T06:24:18;8.32;;;1.70;;
52530;SDS011;38441;52.894;6.040;2023-07-13T06:26:47;9.23;;;2.20;;
52530;SDS011;38441;52.894;6.040;2023-07-13T06:29:12;8.52;;;2.22;;
52530;SDS011;38441;52.894;6.040;2023-07-13T06:31:38;9.85;;;2.08;;
52530;SDS011;38441;52.894;6.040;2023-07-13T06:34:07;8.48;;;2.13;;
52530;SDS011;38441;52.894;6.040;2023-07-13T06:36:33;8.27;;;1.75;;
52530;SDS011;38441;52.894;6.040;2023-07-13T06:38:59;10.18;;;2.00;;
52530;SDS011;38441;52.894;6.040;2023-07-13T06:41:33;9.20;;;2.05;;
52530;SDS011;38441;52.894;6.040;2023-07-13T06:44:04;9.40;;;1.70;;
52530;SDS011;38441;52.894;6.040;2023-07-13T06:46:45;6.00;;;1.83;;
52530;SDS011;38441;52.894;6.040;2023-07-13T06:53:06;3.30;;;1.00;;
52530;SDS011;38441;52.894;6.040;2023-07-13T06:55:58;5.38;;;1.40;;
52530;SDS011;38441;52.894;6.040;2023-07-13T06:59:09;4.70;;;1.17;;
52530;SDS011;38441;52.894;6.040;2023-07-13T07:02:23;4.43;;;1.20;;
52530;SDS011;38441;52.894;6.040;2023-07-13T07:05:01;5.85;;;1.25;;
52530;SDS011;38441;52.894;6.040;2023-07-13T07:08:07;4.28;;;1.45;;
52530;SDS011;38441;52.894;6.040;2023-07-13T07:14:16;4.65;;;1.10;;
52530;SDS011;38441;52.894;6.040;2023-07-13T07:17:17;5.60;;;1.13;;
52530;SDS011;38441;52.894;6.040;2023-07-13T07:20:06;3.75;;;0.77;;
52530;SDS011;38441;52.894;6.040;2023-07-13T07:22:35;11.40;;;2.33;;
52530;SDS011;38441;52.894;6.040;2023-07-13T07:25:18;6.40;;;1.70;;
52530;SDS011;38441;52.894;6.040;2023-07-13T07:31:44;7.75;;;2.15;;
52530;SDS011;38441;52.894;6.040;2023-07-13T07:34:20;9.00;;;1.98;;
52530;SDS011;38441;52.894;6.040;2023-07-13T07:45:04;8.57;;;2.00;;
52530;SDS011;38441;52.894;6.040;2023-07-13T07:48:32;9.18;;;1.92;;
52530;SDS011;38441;52.894;6.040;2023-07-13T07:51:00;5.38;;;2.30;;
52530;SDS011;38441;52.894;6.040;2023-07-13T07:53:48;8.38;;;2.03;;
52530;SDS011;38441;52.894;6.040;2023-07-13T08:00:27;10.02;;;2.38;;
52530;SDS011;38441;52.894;6.040;2023-07-13T08:03:01;5.55;;;1.60;;
52530;SDS011;38441;52.894;6.040;2023-07-13T08:05:27;8.30;;;2.28;;
52530;SDS011;38441;52.894;6.040;2023-07-13T08:08:06;8.52;;;1.92;;
52530;SDS011;38441;52.894;6.040;2023-07-13T08:10:34;8.00;;;2.10;;
52530;SDS011;38441;52.894;6.040;2023-07-13T08:13:22;9.55;;;2.55;;
52530;SDS011;38441;52.894;6.040;2023-07-13T08:16:01;9.25;;;2.40;;
52530;SDS011;38441;52.894;6.040;2023-07-13T08:26:10;10.75;;;2.30;;
52530;SDS011;38441;52.894;6.040;2023-07-13T08:28:58;8.60;;;2.55;;
52530;SDS011;38441;52.894;6.040;2023-07-13T09:52:48;4.28;;;0.70;;
52530;SDS011;38441;52.894;6.040;2023-07-13T09:58:32;3.78;;;0.90;;
52530;SDS011;38441;52.894;6.040;2023-07-13T11:14:45;5.05;;;1.42;;
52530;SDS011;38441;52.894;6.040;2023-07-13T11:18:12;3.80;;;1.00;;
52530;SDS011;38441;52.894;6.040;2023-07-13T11:59:58;2.47;;;0.77;;
52530;SDS011;38441;52.894;6.040;2023-07-13T12:02:37;2.70;;;0.82;;
52530;SDS011;38441;52.894;6.040;2023-07-13T12:07:42;2.35;;;0.65;;
52530;SDS011;38441;52.894;6.040;2023-07-13T12:21:55;3.08;;;0.88;;
52530;SDS011;38441;52.894;6.040;2023-07-13T12:25:25;4.55;;;0.70;;
52530;SDS011;38441;52.894;6.040;2023-07-13T12:27:52;3.30;;;0.57;;
52530;SDS011;38441;52.894;6.040;2023-07-13T13:57:44;4.68;;;1.10;;
52530;SDS011;38441;52.894;6.040;2023-07-13T14:00:25;3.65;;;0.95;;
52530;SDS011;38441;52.894;6.040;2023-07-13T14:06:37;4.35;;;1.10;;
52530;SDS011;38441;52.894;6.040;2023-07-13T14:13:08;4.47;;;1.20;;
52530;SDS011;38441;52.894;6.040;2023-07-13T14:15:53;5.93;;;1.13;;
52530;SDS011;38441;52.894;6.040;2023-07-13T14:18:36;4.22;;;1.33;;
52530;SDS011;38441;52.894;6.040;2023-07-13T14:24:48;6.78;;;1.15;;
52530;SDS011;38441;52.894;6.040;2023-07-13T14:31:10;3.75;;;0.80;;
52530;SDS011;38441;52.894;6.040;2023-07-13T14:42:04;3.95;;;1.05;;
52530;SDS011;38441;52.894;6.040;2023-07-13T14:49:41;4.40;;;0.90;;
52530;SDS011;38441;52.894;6.040;2023-07-13T14:52:20;5.60;;;1.17;;
52530;SDS011;38441;52.894;6.040;2023-07-13T15:19:48;6.00;;;1.42;;
52530;SDS011;38441;52.894;6.040;2023-07-13T15:22:14;3.35;;;1.25;;
52530;SDS011;38441;52.894;6.040;2023-07-13T15:45:32;6.28;;;1.38;;
52530;SDS011;38441;52.894;6.040;2023-07-13T15:58:20;6.82;;;1.00;;
